Ellington — 9V2908 — position and weather

sailwx.info

Track history (hours):
 
Tides and Currents Weather Stations Pressure Air Temp Water Temp Dewpoint Dewpoint Depression Visibility Wind Speed Wind Dir Waves Ship Positions

Ellington

Last reported at 2017-Sep-13 20:35 UTC. Time now 2017-Sep-22 17:22 UTC.
Position N 28°41' E 032°58'.
Warning: this ship's position is 8 days out of date.

Length 159 m; draft 6.8 m.

Type: Tanker. MMSI: 563000100.

Date/timePositionNaut miles runAvg speedWind from/ knotsBaromVisibWave heightAir tempDewpointWater temp
2017-Sep-13 20:35N 28°41' E 032°58'414.3
2017-Sep-13 20:20N 28°44' E 032°56'3314.4
2017-Sep-13 18:04N 29°14' E 032°42'114.4
2017-Sep-13 18:00N 29°15' E 032°42'129 8.9
2017-Sep-13 03:30N 31°23' E 032°22'5 6.0
2017-Sep-13 02:37N 31°24' E 032°16'0 0.1
2017-Sep-13 02:26N 31°24' E 032°16'0 0.1
2017-Sep-13 01:53N 31°24' E 032°16'0 0.0
2017-Sep-13 01:29N 31°24' E 032°16'0 0.0
2017-Sep-13 00:59N 31°24' E 032°16'0 0.0
2017-Sep-13 00:29N 31°24' E 032°16'0 0.0
2017-Sep-12 23:59N 31°24' E 032°16'0 0.0
2017-Sep-12 23:29N 31°24' E 032°16'0 0.0
2017-Sep-12 22:50N 31°24' E 032°16'0 0.0
2017-Sep-12 18:59N 31°24' E 032°16'0 0.0
2017-Sep-12 18:29N 31°24' E 032°16'0 0.0
2017-Sep-12 17:59N 31°24' E 032°16'0 0.0
2017-Sep-12 17:14N 31°24' E 032°16'0 0.1
2017-Sep-12 16:59N 31°24' E 032°16'0 0.0
2017-Sep-12 16:29N 31°24' E 032°16'0 0.0
2017-Sep-12 15:59N 31°24' E 032°16'0 0.0
2017-Sep-12 15:22N 31°24' E 032°16'0 0.1
2017-Sep-12 15:00N 31°24' E 032°16'5 6.9
2017-Sep-12 14:17N 31°29' E 032°15'413.2
2017-Sep-12 14:00N 31°31' E 032°13'713.7
2017-Sep-12 13:31N 31°36' E 032°07'714.8
2017-Sep-12 13:00N 31°41' E 032°01'815.4
2017-Sep-12 12:30N 31°46' E 031°54'816.2
2017-Sep-12 12:01N 31°50' E 031°46'510.6
2017-Sep-12 11:30N 31°54' E 031°41'815.1
2017-Sep-12 11:00N 31°60' E 031°35'815.4
2017-Sep-12 10:30N 32°05' E 031°29'715.1
2017-Sep-12 10:00N 32°11' E 031°23'510.1
2017-Sep-12 09:30N 32°15' E 031°19'1 1.1
2017-Sep-12 09:00N 32°15' E 031°19'1112.1
2017-Sep-12 08:08N 32°23' E 031°11'1615.6
2017-Sep-12 07:06N 32°32' E 030°55'116.2
2017-Sep-12 07:00N 32°33' E 030°53'815.5
2017-Sep-12 06:30N 32°34' E 030°44'3715.6
2017-Sep-12 04:07N 32°46' E 030°02'62415.5
2017-Sep-10 11:52N 35°31' E 017°54'715.5
2017-Sep-10 11:24N 35°33' E 017°46'6315.7
2017-Sep-10 07:23N 35°49' E 016°31'2015.9
2017-Sep-10 06:09N 35°55' E 016°08'215.9
2017-Sep-10 06:00N 35°55' E 016°05'816.0
2017-Sep-10 05:30N 35°57' E 015°55'816.2
2017-Sep-10 05:00N 35°59' E 015°45'816.5
2017-Sep-10 04:30N 36°01' E 015°36'3216.9
2017-Sep-10 02:38N 36°09' E 014°58'516.8
2017-Sep-10 02:18N 36°11' E 014°51'516.7
2017-Sep-10 02:00N 36°12' E 014°45'816.6
2017-Sep-10 01:30N 36°14' E 014°35'816.5
2017-Sep-10 01:00N 36°17' E 014°25'816.6
2017-Sep-10 00:30N 36°20' E 014°16'816.6
2017-Sep-10 00:01N 36°23' E 014°06'916.6
2017-Sep-09 23:30N 36°26' E 013°57'816.5
2017-Sep-09 23:00N 36°29' E 013°47'69715.3
2017-Sep-08 01:24N 36°38' W 000°41'615.3
2017-Sep-08 01:00N 36°35' W 000°47'20815.8
2017-Sep-07 11:51N 36°01' W 005°01'616.2
2017-Sep-07 11:30N 35°60' W 005°08'815.5
2017-Sep-07 11:00N 35°59' W 005°18'713.1
2017-Sep-07 10:30N 35°58' W 005°26'1312.7
2017-Sep-07 09:31N 35°55' W 005°41'013.8
2017-Sep-07 09:30N 35°55' W 005°41'1012.3
2017-Sep-07 08:44N 35°55' W 005°53'6214.5
2017-Sep-07 04:28N 35°58' W 007°09'1115.0
2017-Sep-07 03:44N 36°01' W 007°22'715.0
2017-Sep-07 03:17N 36°03' W 007°30'615.2
2017-Sep-07 02:53N 36°05' W 007°37'715.7
2017-Sep-07 02:26N 36°07' W 007°46'715.6
2017-Sep-07 02:00N 36°09' W 007°54'815.7
2017-Sep-07 01:30N 36°11' W 008°03'1315.8
2017-Sep-07 00:42N 36°15' W 008°18'515.6
2017-Sep-07 00:22N 36°16' W 008°24'915.3
2017-Sep-06 23:45N 36°19' W 008°35'615.9
2017-Sep-06 23:23N 36°20' W 008°42'615.9
2017-Sep-06 23:00N 36°22' W 008°50'816.2
2017-Sep-06 22:30N 36°25' W 008°59'1016.2
2017-Sep-06 21:54N 36°27' W 009°11'1715.6
2017-Sep-06 20:50N 36°37' W 009°28'516.0
2017-Sep-06 20:30N 36°41' W 009°32'2716.2
2017-Sep-06 18:51N 37°06' W 009°44'616.6
2017-Sep-06 18:28N 37°12' W 009°46'816.7
2017-Sep-06 18:00N 37°19' W 009°48'816.5
2017-Sep-06 17:30N 37°27' W 009°50'916.6
2017-Sep-06 17:00N 37°36' W 009°52'816.6
2017-Sep-06 16:30N 37°44' W 009°55'816.5
2017-Sep-06 16:00N 37°52' W 009°57'816.4
2017-Sep-06 15:30N 37°60' W 009°60'816.3
2017-Sep-06 15:00N 38°08' W 010°02'816.5
2017-Sep-06 14:30N 38°16' W 010°04'816.7
2017-Sep-06 14:00N 38°24' W 010°06'816.5
2017-Sep-06 13:30N 38°32' W 010°09'816.8
2017-Sep-06 13:00N 38°40' W 010°11'816.3
2017-Sep-06 12:30N 38°48' W 010°12'816.0
2017-Sep-06 12:00N 38°56' W 010°12'816.0
2017-Sep-06 11:30N 39°04' W 010°12'816.3
2017-Sep-06 11:00N 39°12' W 010°11'816.6
2017-Sep-06 10:30N 39°21' W 010°12'1416.3
2017-Sep-06 09:41N 39°34' W 010°12'316.3
2017-Sep-06 09:30N 39°37' W 010°12'916.3
2017-Sep-06 08:58N 39°46' W 010°12'1116.4
2017-Sep-06 08:16N 39°57' W 010°11'916.6
2017-Sep-06 07:44N 40°06' W 010°11'416.4
2017-Sep-06 07:30N 40°10' W 010°11'816.3
2017-Sep-06 07:00N 40°18' W 010°11'816.2
2017-Sep-06 06:30N 40°26' W 010°11'816.1
2017-Sep-06 06:00N 40°34' W 010°12'2216.1
2017-Sep-06 04:40N 40°56' W 010°12'416.2
2017-Sep-06 04:26N 40°59' W 010°12'1416.3
2017-Sep-06 03:33N 41°14' W 010°12'116.4
2017-Sep-06 03:28N 41°15' W 010°12'716.3
2017-Sep-06 03:00N 41°23' W 010°12'816.3
2017-Sep-06 02:30N 41°31' W 010°12'916.4
2017-Sep-06 01:57N 41°40' W 010°11'1316.8
2017-Sep-06 01:12N 41°53' W 010°12'316.6
2017-Sep-06 01:00N 41°56' W 010°12'47114.5
2017-Sep-04 16:28N 49°15' W 006°09'2 4.1
2017-Sep-04 15:58N 49°17' W 006°08'1 1.8
2017-Sep-04 15:11N 49°17' W 006°10'1 6.8
2017-Sep-04 14:58N 49°17' W 006°08'611.2
2017-Sep-04 14:23N 49°16' W 005°59'6 4.3
2017-Sep-04 12:58N 49°16' W 005°49'1 1.4
2017-Sep-04 11:58N 49°16' W 005°51'1 0.9
2017-Sep-04 10:58N 49°16' W 005°53'0 0.6
2017-Sep-04 10:17N 49°16' W 005°53'1 0.6
2017-Sep-04 08:20N 49°17' W 005°54'0 0.7
2017-Sep-04 07:58N 49°17' W 005°54'1 0.7
2017-Sep-04 07:10N 49°18' W 005°55'1 0.7
2017-Sep-04 06:21N 49°18' W 005°55'1 0.8
2017-Sep-04 05:41N 49°18' W 005°56'1 0.9
2017-Sep-04 04:31N 49°18' W 005°58'0 1.1
2017-Sep-04 04:30N 49°18' W 005°58'2 1.2
2017-Sep-04 02:58N 49°18' W 006°01'4 1.1
2017-Sep-03 23:08N 49°15' W 006°06'0 0.5
2017-Sep-03 22:42N 49°15' W 006°06'  
Track history (hours):
 
Tides and Currents Weather Stations Pressure Air Temp Water Temp Dewpoint Dewpoint Depression Visibility Wind Speed Wind Dir Waves Ship Positions

Ellington

Last reported at 2017-Sep-13 20:35 UTC. Time now 2017-Sep-22 17:22 UTC.
Position N 28°41' E 032°58'.
Warning: this ship's position is 8 days out of date.

Length 159 m; draft 6.8 m.

Type: Tanker. MMSI: 563000100.

Date/timePositionNaut miles runAvg speedWind from/ knotsBaromVisibWave heightAir tempDewpointWater temp
2017-Sep-13 20:35N 28°41' E 032°58'414.3
2017-Sep-13 20:20N 28°44' E 032°56'3314.4
2017-Sep-13 18:04N 29°14' E 032°42'114.4
2017-Sep-13 18:00N 29°15' E 032°42'129 8.9
2017-Sep-13 03:30N 31°23' E 032°22'5 6.0
2017-Sep-13 02:37N 31°24' E 032°16'0 0.1
2017-Sep-13 02:26N 31°24' E 032°16'0 0.1
2017-Sep-13 01:53N 31°24' E 032°16'0 0.0
2017-Sep-13 01:29N 31°24' E 032°16'0 0.0
2017-Sep-13 00:59N 31°24' E 032°16'0 0.0
2017-Sep-13 00:29N 31°24' E 032°16'0 0.0
2017-Sep-12 23:59N 31°24' E 032°16'0 0.0
2017-Sep-12 23:29N 31°24' E 032°16'0 0.0
2017-Sep-12 22:50N 31°24' E 032°16'0 0.0
2017-Sep-12 18:59N 31°24' E 032°16'0 0.0
2017-Sep-12 18:29N 31°24' E 032°16'0 0.0
2017-Sep-12 17:59N 31°24' E 032°16'0 0.0
2017-Sep-12 17:14N 31°24' E 032°16'0 0.1
2017-Sep-12 16:59N 31°24' E 032°16'0 0.0
2017-Sep-12 16:29N 31°24' E 032°16'0 0.0
2017-Sep-12 15:59N 31°24' E 032°16'0 0.0
2017-Sep-12 15:22N 31°24' E 032°16'0 0.1
2017-Sep-12 15:00N 31°24' E 032°16'5 6.9
2017-Sep-12 14:17N 31°29' E 032°15'413.2
2017-Sep-12 14:00N 31°31' E 032°13'713.7
2017-Sep-12 13:31N 31°36' E 032°07'714.8
2017-Sep-12 13:00N 31°41' E 032°01'815.4
2017-Sep-12 12:30N 31°46' E 031°54'816.2
2017-Sep-12 12:01N 31°50' E 031°46'510.6
2017-Sep-12 11:30N 31°54' E 031°41'815.1
2017-Sep-12 11:00N 31°60' E 031°35'815.4
2017-Sep-12 10:30N 32°05' E 031°29'715.1
2017-Sep-12 10:00N 32°11' E 031°23'510.1
2017-Sep-12 09:30N 32°15' E 031°19'1 1.1
2017-Sep-12 09:00N 32°15' E 031°19'1112.1
2017-Sep-12 08:08N 32°23' E 031°11'1615.6
2017-Sep-12 07:06N 32°32' E 030°55'116.2
2017-Sep-12 07:00N 32°33' E 030°53'815.5
2017-Sep-12 06:30N 32°34' E 030°44'3715.6
2017-Sep-12 04:07N 32°46' E 030°02'62415.5
2017-Sep-10 11:52N 35°31' E 017°54'715.5
2017-Sep-10 11:24N 35°33' E 017°46'6315.7
2017-Sep-10 07:23N 35°49' E 016°31'2015.9
2017-Sep-10 06:09N 35°55' E 016°08'215.9
2017-Sep-10 06:00N 35°55' E 016°05'816.0
2017-Sep-10 05:30N 35°57' E 015°55'816.2
2017-Sep-10 05:00N 35°59' E 015°45'816.5
2017-Sep-10 04:30N 36°01' E 015°36'3216.9
2017-Sep-10 02:38N 36°09' E 014°58'516.8
2017-Sep-10 02:18N 36°11' E 014°51'516.7
2017-Sep-10 02:00N 36°12' E 014°45'816.6
2017-Sep-10 01:30N 36°14' E 014°35'816.5
2017-Sep-10 01:00N 36°17' E 014°25'816.6
2017-Sep-10 00:30N 36°20' E 014°16'816.6
2017-Sep-10 00:01N 36°23' E 014°06'916.6
2017-Sep-09 23:30N 36°26' E 013°57'816.5
2017-Sep-09 23:00N 36°29' E 013°47'69715.3
2017-Sep-08 01:24N 36°38' W 000°41'615.3
2017-Sep-08 01:00N 36°35' W 000°47'20815.8
2017-Sep-07 11:51N 36°01' W 005°01'616.2
2017-Sep-07 11:30N 35°60' W 005°08'815.5
2017-Sep-07 11:00N 35°59' W 005°18'713.1
2017-Sep-07 10:30N 35°58' W 005°26'1312.7
2017-Sep-07 09:31N 35°55' W 005°41'013.8
2017-Sep-07 09:30N 35°55' W 005°41'1012.3
2017-Sep-07 08:44N 35°55' W 005°53'6214.5
2017-Sep-07 04:28N 35°58' W 007°09'1115.0
2017-Sep-07 03:44N 36°01' W 007°22'715.0
2017-Sep-07 03:17N 36°03' W 007°30'615.2
2017-Sep-07 02:53N 36°05' W 007°37'715.7
2017-Sep-07 02:26N 36°07' W 007°46'715.6
2017-Sep-07 02:00N 36°09' W 007°54'815.7
2017-Sep-07 01:30N 36°11' W 008°03'1315.8
2017-Sep-07 00:42N 36°15' W 008°18'515.6
2017-Sep-07 00:22N 36°16' W 008°24'915.3
2017-Sep-06 23:45N 36°19' W 008°35'615.9
2017-Sep-06 23:23N 36°20' W 008°42'615.9
2017-Sep-06 23:00N 36°22' W 008°50'816.2
2017-Sep-06 22:30N 36°25' W 008°59'1016.2
2017-Sep-06 21:54N 36°27' W 009°11'1715.6
2017-Sep-06 20:50N 36°37' W 009°28'516.0
2017-Sep-06 20:30N 36°41' W 009°32'2716.2
2017-Sep-06 18:51N 37°06' W 009°44'616.6
2017-Sep-06 18:28N 37°12' W 009°46'816.7
2017-Sep-06 18:00N 37°19' W 009°48'816.5
2017-Sep-06 17:30N 37°27' W 009°50'916.6
2017-Sep-06 17:00N 37°36' W 009°52'816.6
2017-Sep-06 16:30N 37°44' W 009°55'816.5
2017-Sep-06 16:00N 37°52' W 009°57'816.4
2017-Sep-06 15:30N 37°60' W 009°60'816.3
2017-Sep-06 15:00N 38°08' W 010°02'816.5
2017-Sep-06 14:30N 38°16' W 010°04'816.7
2017-Sep-06 14:00N 38°24' W 010°06'816.5
2017-Sep-06 13:30N 38°32' W 010°09'816.8
2017-Sep-06 13:00N 38°40' W 010°11'816.3
2017-Sep-06 12:30N 38°48' W 010°12'816.0
2017-Sep-06 12:00N 38°56' W 010°12'816.0
2017-Sep-06 11:30N 39°04' W 010°12'816.3
2017-Sep-06 11:00N 39°12' W 010°11'816.6
2017-Sep-06 10:30N 39°21' W 010°12'1416.3
2017-Sep-06 09:41N 39°34' W 010°12'316.3
2017-Sep-06 09:30N 39°37' W 010°12'916.3
2017-Sep-06 08:58N 39°46' W 010°12'1116.4
2017-Sep-06 08:16N 39°57' W 010°11'916.6
2017-Sep-06 07:44N 40°06' W 010°11'416.4
2017-Sep-06 07:30N 40°10' W 010°11'816.3
2017-Sep-06 07:00N 40°18' W 010°11'816.2
2017-Sep-06 06:30N 40°26' W 010°11'816.1
2017-Sep-06 06:00N 40°34' W 010°12'2216.1
2017-Sep-06 04:40N 40°56' W 010°12'416.2
2017-Sep-06 04:26N 40°59' W 010°12'1416.3
2017-Sep-06 03:33N 41°14' W 010°12'116.4
2017-Sep-06 03:28N 41°15' W 010°12'716.3
2017-Sep-06 03:00N 41°23' W 010°12'816.3
2017-Sep-06 02:30N 41°31' W 010°12'916.4
2017-Sep-06 01:57N 41°40' W 010°11'1316.8
2017-Sep-06 01:12N 41°53' W 010°12'316.6
2017-Sep-06 01:00N 41°56' W 010°12'47114.5
2017-Sep-04 16:28N 49°15' W 006°09'2 4.1
2017-Sep-04 15:58N 49°17' W 006°08'1 1.8
2017-Sep-04 15:11N 49°17' W 006°10'1 6.8
2017-Sep-04 14:58N 49°17' W 006°08'611.2
2017-Sep-04 14:23N 49°16' W 005°59'6 4.3
2017-Sep-04 12:58N 49°16' W 005°49'1 1.4
2017-Sep-04 11:58N 49°16' W 005°51'1 0.9
2017-Sep-04 10:58N 49°16' W 005°53'0 0.6
2017-Sep-04 10:17N 49°16' W 005°53'1 0.6
2017-Sep-04 08:20N 49°17' W 005°54'0 0.7
2017-Sep-04 07:58N 49°17' W 005°54'1 0.7
2017-Sep-04 07:10N 49°18' W 005°55'1 0.7
2017-Sep-04 06:21N 49°18' W 005°55'1 0.8
2017-Sep-04 05:41N 49°18' W 005°56'1 0.9
2017-Sep-04 04:31N 49°18' W 005°58'0 1.1
2017-Sep-04 04:30N 49°18' W 005°58'2 1.2
2017-Sep-04 02:58N 49°18' W 006°01'4 1.1
2017-Sep-03 23:08N 49°15' W 006°06'0 0.5
2017-Sep-03 22:42N 49°15' W 006°06'  

Dump ship's entire track history